RKSS/GMP METAR and TAF weather

Enter ICAO airport designator
Station Type Date Time Source
RKSS METAR 2022/12/10 01:00 UTC NOAA

RKSS 100100Z 32005KT CAVOK 01/M03 Q1022 NOSIG


Station Type Date Time Source
RKSS Decoded METAR 2022/12/10 01:00 UTC NOAA

Seoul / Kimp'O International Airport, Korea, South (RKSS) 37-33N 126-48E 18M
Dec 09, 2022 - 08:00 PM EST / 2022.12.10 0100 UTC
Wind: from the NW (320 degrees) at 6 MPH (5 KT):0
Visibility: greater than 7 mile(s):0
Temperature: 33 F (1 C)
Windchill: 26 F (-3 C):1
Dew Point: 26 F (-3 C)
Relative Humidity: 74%
Pressure (altimeter): 30.18 in. Hg (1022 hPa)
ob: RKSS 100100Z 32005KT CAVOK 01/M03 Q1022 NOSIG
cycle: 1

Station Type Date Time Source
RKSS TAF 2022/12/09 18:10 UTC NOAA

TAF RKSS 091700Z 0918/1024 06005KT 6000 NSC TNM04/0921Z TX07/1005Z TNM05/1021Z
BECMG 1003/1005 33007KT 9999 SCT040

Example: see airport list